createdAt,value
2022-12-23T00:00:28.777Z,9.40
2022-12-23T00:02:55.815Z,9.20
2022-12-23T00:05:22.689Z,9.20
2022-12-23T00:07:49.437Z,9.10
2022-12-23T00:10:16.166Z,8.80
2022-12-23T00:13:01.503Z,8.60
2022-12-23T00:15:28.288Z,8.80
2022-12-23T00:17:54.950Z,8.90
2022-12-23T00:20:21.683Z,9.00
2022-12-23T00:23:06.673Z,9.10
2022-12-23T00:25:44.929Z,9.10
2022-12-23T00:28:18.631Z,9.10
2022-12-23T00:30:48.244Z,9.10
2022-12-23T00:33:15.126Z,8.90
2022-12-23T00:35:42.297Z,8.90
2022-12-23T00:38:08.992Z,8.70
2022-12-23T00:40:54.164Z,8.80
2022-12-23T00:43:20.830Z,8.70
2022-12-23T00:45:47.607Z,8.70
2022-12-23T00:48:33.058Z,8.60
2022-12-23T00:50:59.715Z,8.50
2022-12-23T00:53:26.566Z,8.30
2022-12-23T00:55:53.333Z,8.20
2022-12-23T00:58:20.319Z,8.20
2022-12-23T01:01:05.903Z,8.20
2022-12-23T01:03:51.243Z,8.20
2022-12-23T01:06:18.022Z,8.50
2022-12-23T01:08:44.712Z,8.30
2022-12-23T01:11:11.456Z,8.20
2022-12-23T01:13:38.326Z,7.90
2022-12-23T01:16:09.372Z,7.90
2022-12-23T01:18:38.675Z,7.90
2022-12-23T01:21:06.067Z,7.90
2022-12-23T01:23:33.005Z,7.60
2022-12-23T01:25:59.959Z,7.50
2022-12-23T01:28:27.310Z,7.50
2022-12-23T01:30:54.040Z,7.60
2022-12-23T01:33:20.745Z,7.60
2022-12-23T01:35:47.493Z,7.60
2022-12-23T01:38:14.238Z,7.70
2022-12-23T01:40:41.599Z,8.00
2022-12-23T01:43:17.744Z,7.80
2022-12-23T01:45:44.542Z,8.00
2022-12-23T01:48:15.964Z,7.80
2022-12-23T01:50:45.108Z,7.60
2022-12-23T01:53:12.879Z,7.80
2022-12-23T01:55:42.566Z,7.90
2022-12-23T01:58:10.893Z,7.80
2022-12-23T02:00:56.178Z,7.90
2022-12-23T02:03:41.298Z,7.90
2022-12-23T02:06:30.098Z,8.00
2022-12-23T02:09:15.520Z,7.90
2022-12-23T02:12:01.140Z,7.90
2022-12-23T02:15:05.543Z,7.60
2022-12-23T02:17:35.803Z,7.60
2022-12-23T02:20:21.206Z,7.60
2022-12-23T02:23:17.265Z,7.20
2022-12-23T02:26:03.424Z,7.00
2022-12-23T02:28:48.882Z,6.90
2022-12-23T02:31:15.601Z,6.80
2022-12-23T02:34:00.949Z,6.90
2022-12-23T02:36:46.321Z,7.20
2022-12-23T02:39:19.147Z,7.40
2022-12-23T02:41:59.332Z,7.60
2022-12-23T02:44:44.877Z,7.40
2022-12-23T02:47:13.212Z,7.20
2022-12-23T02:49:45.024Z,7.40
2022-12-23T02:52:15.239Z,7.50
2022-12-23T02:54:43.461Z,7.40
2022-12-23T02:57:10.100Z,7.30
2022-12-23T02:59:39.623Z,7.40
2022-12-23T03:02:06.449Z,7.40
2022-12-23T03:04:33.205Z,7.00
2022-12-23T03:07:04.484Z,7.30
2022-12-23T03:09:34.240Z,7.30
2022-12-23T03:12:19.314Z,7.20
2022-12-23T03:14:49.045Z,7.10
2022-12-23T03:17:21.089Z,7.30
2022-12-23T03:19:53.942Z,7.30
2022-12-23T03:22:26.513Z,7.30
2022-12-23T03:25:19.593Z,7.00
2022-12-23T03:27:58.787Z,7.10
2022-12-23T03:30:25.425Z,7.20
2022-12-23T03:33:00.528Z,7.00
2022-12-23T03:35:29.951Z,6.80
2022-12-23T03:37:56.628Z,6.50
2022-12-23T03:40:23.926Z,6.70
2022-12-23T03:42:55.484Z,6.90
2022-12-23T03:45:41.048Z,7.00
2022-12-23T03:48:14.530Z,7.10
2022-12-23T03:50:42.890Z,7.10
2022-12-23T03:53:10.998Z,7.00
2022-12-23T03:55:41.447Z,7.00
2022-12-23T03:58:26.634Z,7.00
2022-12-23T04:00:58.990Z,6.80
2022-12-23T04:03:31.393Z,6.70
2022-12-23T04:05:58.613Z,6.80
2022-12-23T04:08:37.614Z,6.50
2022-12-23T04:11:04.613Z,6.30
2022-12-23T04:13:31.503Z,6.10
2022-12-23T04:16:01.488Z,6.20
2022-12-23T04:18:28.436Z,6.30
2022-12-23T04:20:55.117Z,6.60
2022-12-23T04:23:21.932Z,6.90
2022-12-23T04:25:48.620Z,6.80
2022-12-23T04:28:15.343Z,6.80
2022-12-23T04:30:42.079Z,6.70
2022-12-23T04:33:10.278Z,6.60
2022-12-23T04:35:36.970Z,6.50
2022-12-23T04:38:04.064Z,6.30
2022-12-23T04:40:30.769Z,5.70
2022-12-23T04:42:57.481Z,6.10
2022-12-23T04:45:24.171Z,6.30
2022-12-23T04:47:50.966Z,6.10
2022-12-23T04:50:17.674Z,6.40
2022-12-23T04:52:44.516Z,6.50
2022-12-23T04:55:11.251Z,6.40
2022-12-23T04:57:37.975Z,6.50
2022-12-23T05:00:05.042Z,6.30
2022-12-23T05:02:31.800Z,6.50
2022-12-23T05:04:58.676Z,6.30
2022-12-23T05:07:25.324Z,6.30
2022-12-23T05:09:52.036Z,6.30
2022-12-23T05:12:18.674Z,6.40
2022-12-23T05:14:45.426Z,6.40
2022-12-23T05:17:12.170Z,6.40
2022-12-23T05:19:38.789Z,6.50
2022-12-23T05:22:05.474Z,6.40
2022-12-23T05:24:32.135Z,6.10
2022-12-23T05:27:00.376Z,6.20
2022-12-23T05:29:27.696Z,6.10
2022-12-23T05:31:54.495Z,5.90
2022-12-23T05:34:21.296Z,5.80
2022-12-23T05:36:48.028Z,6.00
2022-12-23T05:39:14.658Z,5.90
2022-12-23T05:41:41.341Z,6.10
2022-12-23T05:44:08.032Z,6.00
2022-12-23T05:46:35.020Z,5.90
2022-12-23T05:49:01.849Z,6.10
2022-12-23T05:51:28.552Z,6.20
2022-12-23T05:53:55.324Z,6.40
2022-12-23T05:56:21.987Z,6.30
2022-12-23T05:58:48.697Z,6.40
2022-12-23T06:01:15.371Z,6.10
2022-12-23T06:03:42.213Z,6.30
2022-12-23T06:06:09.118Z,6.50
2022-12-23T06:08:35.827Z,6.60
2022-12-23T06:11:04.309Z,6.40
2022-12-23T06:13:31.037Z,6.30
2022-12-23T06:15:57.786Z,6.20
2022-12-23T06:18:24.521Z,6.30
2022-12-23T06:20:51.217Z,6.40
2022-12-23T06:23:18.014Z,6.20
2022-12-23T06:25:44.682Z,6.00
2022-12-23T06:28:11.370Z,6.20
2022-12-23T06:30:38.129Z,6.30
2022-12-23T06:33:04.842Z,6.50
2022-12-23T06:35:31.495Z,6.50
2022-12-23T06:37:58.193Z,6.50
2022-12-23T06:40:24.896Z,6.40
2022-12-23T06:42:51.687Z,6.20
2022-12-23T06:45:18.443Z,6.30
2022-12-23T06:47:45.245Z,6.10
2022-12-23T06:50:11.990Z,6.50
2022-12-23T06:52:38.681Z,6.20
2022-12-23T06:55:05.675Z,6.20
2022-12-23T06:57:32.355Z,6.40
2022-12-23T06:59:59.080Z,6.10
2022-12-23T07:02:25.934Z,6.20
2022-12-23T07:04:52.667Z,6.20
2022-12-23T07:07:19.464Z,6.00
2022-12-23T07:09:46.266Z,6.50
2022-12-23T07:12:13.000Z,7.10
2022-12-23T07:14:39.698Z,7.80
2022-12-23T07:17:06.484Z,8.50
2022-12-23T07:19:34.232Z,8.50
2022-12-23T07:22:01.631Z,8.90
2022-12-23T07:24:28.333Z,8.90
2022-12-23T07:26:55.963Z,8.60
2022-12-23T07:29:22.732Z,8.80
2022-12-23T07:31:49.545Z,9.30
2022-12-23T07:34:16.337Z,9.80
2022-12-23T07:36:43.108Z,10.30
2022-12-23T07:39:09.792Z,10.60
2022-12-23T07:41:36.553Z,11.00
2022-12-23T07:44:03.331Z,10.80
2022-12-23T07:46:30.220Z,11.30
2022-12-23T07:48:57.076Z,12.20
2022-12-23T07:51:23.746Z,12.70
2022-12-23T07:53:50.583Z,13.30
2022-12-23T07:56:17.731Z,13.40
2022-12-23T07:58:47.856Z,14.10
2022-12-23T08:01:14.578Z,14.30
2022-12-23T08:03:41.291Z,13.40
2022-12-23T08:06:08.980Z,13.40
2022-12-23T08:08:35.857Z,13.40
2022-12-23T08:11:03.377Z,14.30
2022-12-23T08:13:30.299Z,15.30
2022-12-23T08:15:57.198Z,15.80
2022-12-23T08:18:24.183Z,16.20
2022-12-23T08:21:19.063Z,16.70
2022-12-23T08:23:47.218Z,17.30
2022-12-23T08:26:14.909Z,17.90
2022-12-23T08:28:41.958Z,16.40
2022-12-23T08:31:15.889Z,17.10
2022-12-23T08:33:43.272Z,17.90
2022-12-23T08:36:10.567Z,18.50
2022-12-23T08:38:37.328Z,18.20
2022-12-23T08:41:04.207Z,17.00
2022-12-23T08:43:35.862Z,15.70
2022-12-23T08:46:03.134Z,14.00
2022-12-23T08:48:29.868Z,13.10
2022-12-23T08:50:56.520Z,11.70
2022-12-23T08:53:23.221Z,10.90
2022-12-23T08:55:49.922Z,10.60
2022-12-23T08:58:16.649Z,9.90
2022-12-23T09:00:43.301Z,10.10
2022-12-23T09:03:10.222Z,11.20
2022-12-23T09:05:40.965Z,12.60
2022-12-23T09:08:08.220Z,12.00
2022-12-23T09:10:35.280Z,12.50
2022-12-23T09:13:01.971Z,12.10
2022-12-23T09:15:28.792Z,12.10
2022-12-23T09:17:55.527Z,12.40
2022-12-23T09:20:22.370Z,12.80
2022-12-23T09:22:49.210Z,12.90
2022-12-23T09:25:15.971Z,13.10
2022-12-23T09:27:42.688Z,13.60
2022-12-23T09:30:10.303Z,13.40
2022-12-23T09:32:37.007Z,13.60
2022-12-23T09:35:03.846Z,14.20
2022-12-23T09:37:30.562Z,14.40
2022-12-23T09:39:57.359Z,16.00
2022-12-23T09:42:44.315Z,17.10
2022-12-23T09:45:19.991Z,17.10
2022-12-23T09:47:46.819Z,17.10
2022-12-23T09:50:18.039Z,17.50
2022-12-23T09:52:57.214Z,17.00
2022-12-23T09:55:24.373Z,16.70
2022-12-23T09:57:52.107Z,18.10
2022-12-23T10:00:18.859Z,19.60
2022-12-23T10:02:55.062Z,19.80
2022-12-23T10:05:21.944Z,19.60
2022-12-23T10:07:49.772Z,20.00
2022-12-23T10:10:39.637Z,19.80
2022-12-23T10:13:06.887Z,19.80
2022-12-23T10:15:33.632Z,19.80
2022-12-23T10:18:02.723Z,19.20
2022-12-23T10:20:35.318Z,18.90
2022-12-23T10:23:02.087Z,18.80
2022-12-23T10:25:30.188Z,18.20
2022-12-23T10:27:57.016Z,17.90
2022-12-23T10:30:53.868Z,17.20
2022-12-23T10:33:16.235Z,17.30
2022-12-23T10:35:43.013Z,17.20
2022-12-23T10:38:19.060Z,17.10
2022-12-23T10:41:09.576Z,16.80
2022-12-23T10:43:47.307Z,16.80
2022-12-23T10:46:25.591Z,16.60
2022-12-23T10:49:11.078Z,16.90
2022-12-23T10:51:47.314Z,17.00
2022-12-23T10:54:24.133Z,16.90
2022-12-23T10:56:50.865Z,17.10
2022-12-23T10:59:24.742Z,17.20
2022-12-23T11:01:52.860Z,17.20
2022-12-23T11:04:20.080Z,17.40
2022-12-23T11:06:48.529Z,17.60
2022-12-23T11:09:18.964Z,17.60
2022-12-23T11:11:52.422Z,17.70
2022-12-23T11:14:38.443Z,17.60
2022-12-23T11:17:05.372Z,17.80
2022-12-23T11:19:32.188Z,18.20
2022-12-23T11:21:59.279Z,18.50
2022-12-23T11:24:35.459Z,18.20
2022-12-23T11:27:05.934Z,18.40
2022-12-23T11:29:36.415Z,18.40
2022-12-23T11:32:04.034Z,18.50
2022-12-23T11:34:33.163Z,18.50
2022-12-23T11:37:06.972Z,18.50
2022-12-23T11:39:34.988Z,18.60
2022-12-23T11:42:02.829Z,19.00
2022-12-23T11:44:38.487Z,19.20
2022-12-23T11:47:17.369Z,19.50
2022-12-23T11:49:48.893Z,20.20
2022-12-23T11:52:17.297Z,21.50
2022-12-23T11:54:54.232Z,22.30
2022-12-23T11:57:22.422Z,23.00
2022-12-23T11:59:49.908Z,23.00
2022-12-23T12:02:34.651Z,24.30
2022-12-23T12:05:16.423Z,24.00
2022-12-23T12:07:43.645Z,23.40
2022-12-23T12:10:13.506Z,23.90
2022-12-23T12:12:40.402Z,23.70
2022-12-23T12:15:07.297Z,23.20
2022-12-23T12:17:34.163Z,24.00
2022-12-23T12:20:10.442Z,23.40
2022-12-23T12:22:41.529Z,22.80
2022-12-23T12:25:40.401Z,23.80
2022-12-23T12:28:12.374Z,24.00
2022-12-23T12:30:44.403Z,24.00
2022-12-23T12:33:16.427Z,21.40
2022-12-23T12:35:53.319Z,20.70
2022-12-23T12:38:24.987Z,20.80
2022-12-23T12:40:52.871Z,21.70
2022-12-23T12:43:28.847Z,22.30
2022-12-23T12:45:55.574Z,22.50
2022-12-23T12:48:28.384Z,21.00
2022-12-23T12:51:00.247Z,21.60
2022-12-23T12:53:26.991Z,21.40
2022-12-23T12:55:56.151Z,21.30
2022-12-23T12:58:23.256Z,21.30
2022-12-23T13:01:09.134Z,20.90
2022-12-23T13:03:54.956Z,21.70
2022-12-23T13:06:33.877Z,21.60
2022-12-23T13:09:00.586Z,22.30
2022-12-23T13:11:45.478Z,21.90
2022-12-23T13:14:18.521Z,22.30
2022-12-23T13:16:48.273Z,21.50
2022-12-23T13:20:04.841Z,21.30
2022-12-23T13:22:32.664Z,21.00
2022-12-23T13:25:18.162Z,20.00
2022-12-23T13:27:50.797Z,19.00
2022-12-23T13:30:21.545Z,19.10
2022-12-23T13:33:07.213Z,19.20
2022-12-23T13:35:45.999Z,19.10
2022-12-23T13:38:18.665Z,19.00
2022-12-23T13:41:05.782Z,19.00
2022-12-23T13:43:49.422Z,18.90
2022-12-23T13:46:36.452Z,18.80
2022-12-23T13:49:05.689Z,18.80
2022-12-23T13:51:37.603Z,18.80
2022-12-23T13:54:13.474Z,18.80
2022-12-23T13:56:44.080Z,18.70
2022-12-23T13:59:11.455Z,18.60
2022-12-23T14:01:56.466Z,18.60
2022-12-23T14:04:32.183Z,18.30
2022-12-23T14:06:59.751Z,18.20
2022-12-23T14:09:30.625Z,18.30
2022-12-23T14:12:02.660Z,18.30
2022-12-23T14:14:31.203Z,18.20
2022-12-23T14:17:13.646Z,18.00
2022-12-23T14:20:07.595Z,18.10
2022-12-23T14:22:46.566Z,18.10
2022-12-23T14:25:16.314Z,18.10
2022-12-23T14:27:45.810Z,18.10
2022-12-23T14:30:22.153Z,18.00
2022-12-23T14:32:52.525Z,18.10
2022-12-23T14:35:21.491Z,17.90
2022-12-23T14:38:06.862Z,17.90
2022-12-23T14:40:53.866Z,17.80
2022-12-23T14:43:26.746Z,17.70
2022-12-23T14:45:56.639Z,17.60
2022-12-23T14:48:41.872Z,17.50
2022-12-23T14:51:08.666Z,17.30
2022-12-23T14:53:53.955Z,17.20
2022-12-23T14:56:21.699Z,17.10
2022-12-23T14:58:54.303Z,16.80
2022-12-23T15:01:24.223Z,16.70
2022-12-23T15:03:55.976Z,16.40
2022-12-23T15:06:38.028Z,16.30
2022-12-23T15:09:05.083Z,16.10
2022-12-23T15:11:32.179Z,15.90
2022-12-23T15:14:00.175Z,16.00
2022-12-23T15:16:34.610Z,15.70
2022-12-23T15:19:02.563Z,15.50
2022-12-23T15:21:32.052Z,15.20
2022-12-23T15:23:58.803Z,14.90
2022-12-23T15:26:26.791Z,14.80
2022-12-23T15:28:53.772Z,14.60
2022-12-23T15:31:33.486Z,14.40
2022-12-23T15:34:03.357Z,14.20
2022-12-23T15:36:32.324Z,14.30
2022-12-23T15:38:59.652Z,14.20
2022-12-23T15:41:26.314Z,14.00
2022-12-23T15:43:55.790Z,13.80
2022-12-23T15:46:29.279Z,13.80
2022-12-23T15:48:56.796Z,13.80
2022-12-23T15:54:39.155Z,13.70
2022-12-23T15:57:05.880Z,13.50
2022-12-23T15:59:36.877Z,13.50
2022-12-23T16:02:58.334Z,13.60
2022-12-23T16:05:05.798Z,13.50
2022-12-23T16:07:39.738Z,13.30
2022-12-23T16:10:14.265Z,13.10
2022-12-23T16:12:40.949Z,13.10
2022-12-23T16:15:27.804Z,12.90
2022-12-23T16:18:13.446Z,12.80
2022-12-23T16:20:41.112Z,12.80
2022-12-23T16:23:08.694Z,12.90
2022-12-23T16:25:36.698Z,12.80
2022-12-23T16:28:04.349Z,12.60
2022-12-23T16:30:32.175Z,12.50
2022-12-23T16:33:02.661Z,12.60
2022-12-23T16:35:29.396Z,12.40
2022-12-23T16:38:11.152Z,12.40
2022-12-23T16:40:37.822Z,12.20
2022-12-23T16:43:04.591Z,12.20
2022-12-23T16:45:31.997Z,12.30
2022-12-23T16:47:58.780Z,12.20
2022-12-23T16:50:25.580Z,11.90
2022-12-23T16:52:52.280Z,11.90
2022-12-23T16:55:19.724Z,11.70
2022-12-23T16:57:46.450Z,11.90
2022-12-23T17:00:14.326Z,11.60
2022-12-23T17:02:41.081Z,11.60
2022-12-23T17:05:08.001Z,11.80
2022-12-23T17:07:38.719Z,11.90
2022-12-23T17:10:08.682Z,12.00
2022-12-23T17:12:35.331Z,12.00
2022-12-23T17:15:02.062Z,12.00
2022-12-23T17:17:35.870Z,11.80
2022-12-23T17:20:02.663Z,11.60
2022-12-23T17:22:29.330Z,11.60
2022-12-23T17:24:56.052Z,11.40
2022-12-23T17:27:22.747Z,11.50
2022-12-23T17:29:49.474Z,11.40
2022-12-23T17:32:16.239Z,11.50
2022-12-23T17:34:42.987Z,11.50
2022-12-23T17:37:13.735Z,11.50
2022-12-23T17:39:41.029Z,11.20
2022-12-23T17:42:11.510Z,11.30
2022-12-23T17:44:38.242Z,11.10
2022-12-23T17:47:05.978Z,11.00
2022-12-23T17:49:32.655Z,11.20
2022-12-23T17:51:59.337Z,11.30
2022-12-23T17:54:26.065Z,11.10
2022-12-23T17:56:53.137Z,11.10
2022-12-23T17:59:20.163Z,11.10
2022-12-23T18:01:46.977Z,11.10
2022-12-23T18:04:13.725Z,11.30
2022-12-23T18:06:40.382Z,11.30
2022-12-23T18:09:07.122Z,11.20
2022-12-23T18:11:34.583Z,11.20
2022-12-23T18:14:01.430Z,11.10
2022-12-23T18:16:28.168Z,11.20
2022-12-23T18:18:54.910Z,11.20
2022-12-23T18:21:25.361Z,11.20
2022-12-23T18:23:52.341Z,11.40
2022-12-23T18:26:19.254Z,11.40
2022-12-23T18:28:46.044Z,11.10
2022-12-23T18:31:14.285Z,10.80
2022-12-23T18:33:41.010Z,10.90
2022-12-23T18:36:10.131Z,10.80
2022-12-23T18:38:36.910Z,10.80
2022-12-23T18:41:03.640Z,10.60
2022-12-23T18:43:30.391Z,10.40
2022-12-23T18:45:57.129Z,10.30
2022-12-23T18:48:23.830Z,10.30
2022-12-23T18:50:50.561Z,10.40
2022-12-23T18:53:23.438Z,10.30
2022-12-23T18:55:51.138Z,10.30
2022-12-23T18:58:20.767Z,10.40
2022-12-23T19:00:47.724Z,10.40
2022-12-23T19:03:27.858Z,10.40
2022-12-23T19:05:54.719Z,10.30
2022-12-23T19:08:26.231Z,10.20
2022-12-23T19:10:53.712Z,10.10
2022-12-23T19:13:20.462Z,10.00
2022-12-23T19:15:47.234Z,9.90
2022-12-23T19:18:16.557Z,10.10
2022-12-23T19:20:43.546Z,10.00
2022-12-23T19:23:10.494Z,10.10
2022-12-23T19:25:37.227Z,10.00
2022-12-23T19:28:03.946Z,10.10
2022-12-23T19:30:30.711Z,10.10
2022-12-23T19:32:57.493Z,10.00
2022-12-23T19:35:24.344Z,9.80
2022-12-23T19:37:51.057Z,9.80
2022-12-23T19:40:17.918Z,9.70
2022-12-23T19:42:44.701Z,9.60
2022-12-23T19:45:11.635Z,9.60
2022-12-23T19:47:38.288Z,9.60
2022-12-23T19:50:05.488Z,9.60
2022-12-23T19:52:32.227Z,9.60
2022-12-23T19:54:58.905Z,9.60
2022-12-23T19:57:28.065Z,9.60
2022-12-23T19:59:54.807Z,9.50
2022-12-23T20:02:23.423Z,9.60
2022-12-23T20:04:50.118Z,9.30
2022-12-23T20:07:16.810Z,9.60
2022-12-23T20:09:43.475Z,9.20
2022-12-23T20:12:10.184Z,9.60
2022-12-23T20:14:36.883Z,9.80
2022-12-23T20:17:03.624Z,9.50
2022-12-23T20:19:30.325Z,9.70
2022-12-23T20:21:57.062Z,9.60
2022-12-23T20:24:23.723Z,9.40
2022-12-23T20:26:50.428Z,9.40
2022-12-23T20:29:17.092Z,9.30
2022-12-23T20:31:44.038Z,9.30
2022-12-23T20:34:12.987Z,9.40
2022-12-23T20:36:39.788Z,9.20
2022-12-23T20:39:06.470Z,9.30
2022-12-23T20:41:33.218Z,9.30
2022-12-23T20:46:46.886Z,9.30
2022-12-23T20:49:13.691Z,9.40
2022-12-23T20:51:40.523Z,9.00
2022-12-23T20:54:07.270Z,9.20
2022-12-23T20:56:33.955Z,9.50
2022-12-23T20:59:04.028Z,9.40
2022-12-23T21:01:31.742Z,9.00
2022-12-23T21:03:59.270Z,9.10
2022-12-23T21:06:26.010Z,9.10
2022-12-23T21:08:55.518Z,9.00
2022-12-23T21:11:22.573Z,9.00
2022-12-23T21:13:49.244Z,8.70
2022-12-23T21:16:16.061Z,9.10
2022-12-23T21:18:43.382Z,9.20
2022-12-23T21:21:10.176Z,9.20
2022-12-23T21:23:37.439Z,9.10
2022-12-23T21:26:07.814Z,9.30
2022-12-23T21:28:34.555Z,9.20
2022-12-23T21:31:01.307Z,9.20
2022-12-23T21:33:27.975Z,9.30
2022-12-23T21:35:54.751Z,9.10
2022-12-23T21:38:21.686Z,9.20
2022-12-23T21:40:48.362Z,9.40
2022-12-23T21:43:15.037Z,9.30
2022-12-23T21:45:41.650Z,9.30
2022-12-23T21:48:08.321Z,9.20
2022-12-23T21:50:34.990Z,9.10
2022-12-23T21:53:01.793Z,9.40
2022-12-23T21:55:28.630Z,9.40
2022-12-23T21:57:55.309Z,9.20
2022-12-23T22:00:22.024Z,9.40
2022-12-23T22:02:48.756Z,9.20
2022-12-23T22:05:15.500Z,9.20
2022-12-23T22:07:42.264Z,9.10
2022-12-23T22:10:09.408Z,9.00
2022-12-23T22:12:36.115Z,9.20
2022-12-23T22:15:07.813Z,9.00
2022-12-23T22:17:38.066Z,8.80
2022-12-23T22:20:05.144Z,9.00
2022-12-23T22:22:31.899Z,9.10
2022-12-23T22:24:58.616Z,9.20
2022-12-23T22:27:25.339Z,9.30
2022-12-23T22:29:59.609Z,9.20
2022-12-23T22:32:26.322Z,9.10
2022-12-23T22:34:53.068Z,9.20
2022-12-23T22:37:19.925Z,9.10
2022-12-23T22:39:46.740Z,9.30
2022-12-23T22:42:13.461Z,9.40
2022-12-23T22:44:40.180Z,9.20
2022-12-23T22:47:07.006Z,8.80
2022-12-23T22:49:33.664Z,9.10
2022-12-23T22:52:00.309Z,9.00
2022-12-23T22:54:26.991Z,9.20
2022-12-23T22:56:53.763Z,9.20
2022-12-23T22:59:23.747Z,9.20
2022-12-23T23:01:50.760Z,9.30
2022-12-23T23:04:17.735Z,9.00
2022-12-23T23:06:44.507Z,8.90
2022-12-23T23:09:15.504Z,9.10
2022-12-23T23:11:43.324Z,9.30
2022-12-23T23:14:10.441Z,9.20
2022-12-23T23:16:37.183Z,9.20
2022-12-23T23:19:04.037Z,9.30
2022-12-23T23:21:30.860Z,9.30
2022-12-23T23:23:57.582Z,9.40
2022-12-23T23:26:27.551Z,8.90
2022-12-23T23:28:54.606Z,9.10
2022-12-23T23:34:08.125Z,9.10
2022-12-23T23:36:34.956Z,9.00
2022-12-23T23:39:01.629Z,9.00
2022-12-23T23:41:28.255Z,9.10
2022-12-23T23:43:55.007Z,8.80
2022-12-23T23:46:21.894Z,9.10
2022-12-23T23:48:48.670Z,9.30
2022-12-23T23:51:15.390Z,9.40
2022-12-23T23:53:42.054Z,9.40
2022-12-23T23:56:11.014Z,9.30
2022-12-23T23:58:37.884Z,9.40
